LICD Airport Information

Runway Information
Runway 08 Length 5906 ft width 148 ft
Elevation 48 ft Threshold 0 ft Heading 81
Runway 26 Length 5906 ft Width 148 ft
Elevation 70 ft Threshold 0 ft Heading 261
Airport Frequencies
Type AFIS Name INFO Frequency 122.1 MHZ
Airport Navaids
Type VOR-DME Name Lampedusa Frequency 108600 KHZ
Type NDB Name Lampedusa Frequency 373 KHZ
Airport Weather Information & NOTAM
ADDS - METARS form results

(0257 UTC 27 February 2021)
Data provider http://aviationweather.gov/metar/data/
 
METAR text: LICD 270250Z AUTO 30004KT 9999 FEW017/// 12/11 Q1024
Conditions at: LICD (LAMPEDUSA ISLAND, IT) observed 0250 UTC 27 February 2021
Temperature: 12.0°C (54°F)
Dewpoint: 11.0°C (52°F) [RH = 94%]
Pressure (altimeter): 30.24 inches Hg (1024.0 mb)
Winds: from the WNW (300 degrees) at 5 MPH (4 knots; 2.1 m/s)
Visibility: 6 or more miles (10+ km)
Ceiling: at least 12,000 feet AGL
Clouds: few clouds at 1700 feet AGL
Weather: no significant weather observed at this time

METAR text: LICD 270220Z AUTO 31003KT 9999 NCD 13/11 Q1024
Conditions at: LICD (LAMPEDUSA ISLAND, IT) observed 0220 UTC 27 February 2021
Temperature: 13.0°C (55°F)
Dewpoint: 11.0°C (52°F) [RH = 88%]
Pressure (altimeter): 30.24 inches Hg (1024.0 mb)
Winds: from the NW (310 degrees) at 3 MPH (3 knots; 1.5 m/s)
Visibility: 6 or more miles (10+ km)
Ceiling: at least 12,000 feet AGL
Clouds: sky clear below 12,000 feet AGL
Weather: no significant weather observed at this time

Forecast for: LICD (LAMPEDUSA ISLAND, IT)
Text: TAF LICD 262300Z 2700/2724 34008KT 9999 SCT020
Forecast period: 0000 UTC 27 February 2021 to 0000 UTC 28 February 2021
Forecast type: FROM: standard forecast or significant change
Winds: from the NNW (340 degrees) at 9 MPH (8 knots; 4.1 m/s)
Visibility: 6 or more miles (10+ km)
Ceiling: at least 12,000 feet AGL
Clouds: scattered clouds at 2000 feet AGL
Weather: no significant weather forecast for this period